ソチ の空港の天気 - METARとTAF

ソチ空港 ( URSS / AER ) - ロシア ソチ
飛行場実況気象(Metar)
観測時間05/29 02:30 MSK (05/28 23:30 UTC)
風向・風速北東 4m/s
視程10km以上
天気現象
なし
気温13℃
湿度88%
気圧1013hPa
METARURSS 282330Z 05004MPS 9999 NSC 13/11 Q1013 R02/010070 R06/010070 NOSIG RMK R06/00000MPS QFE758
過去の天気等 Google飛行場航空写真 Wunderground天気予報

過去48時間のMETAR

飛行場予報(TAF)
発表時間: 5/29 01:55 MSK (5/28 22:55 UTC)
予報対象時間: 29日3時 MSK ~ 30日3時 MSK
風向・風速北東 3m/s 瞬間風速 8m/s
視程10km以上
なし
29日3時 MSK ~ 29日8時 MSK に一時的に
風向・風速北東 7m/s
29日8時 MSK ~ 29日9時 MSK に徐々に
風向・風速南西 3m/s 瞬間風速 8m/s
29日14時 MSK ~ 29日15時 MSK に徐々に
風向・風速西 3m/s 瞬間風速 8m/s
29日20時 MSK ~ 29日21時 MSK に徐々に
風向・風速北東 3m/s 瞬間風速 8m/s
TAF URSS 282255Z 2900/2924 05003G08MPS 9999 NSC
TEMPO 2900/2905 04007MPS
BECMG 2905/2906 23003G08MPS
BECMG 2911/2912 27003G08MPS
BECMG 2917/2918 05003G08MPS